Terminal Aerodrome Forecast
Issued by NWS Wakefield, VA

Home | Current Version | Previous Version | Text Only | Print | Product List | Glossary On
Versions: 1 2 3 4 5 6 7 8 9 10 11 12 13 14 15
000
FTUS41 KAKQ 220100 AAA
TAFSBY
TAF AMD
KSBY 220118Z 2201/2224 VRB03KT P6SM BKN100
      TEMPO 2201/2203 VRB15G25KT 3SM TSRA BKN040CB
     FM220300 32010G18KT P6SM BKN050
     FM220500 32008KT P6SM SCT050 OVC100
     FM220900 33008KT 5SM -RA BR BKN015 OVC040
     FM221400 36012KT 5SM -RA BR OVC020
     FM221900 35015G25KT P6SM -RA BKN025 OVC040=

USA.gov is the U.S. government's official web portal to all federal, state and local government web resources and services.